Date,TemperatureHighF,TemperatureAvgF,TemperatureLowF,DewpointHighF,DewpointAvgF,DewpointLowF,HumidityHigh,HumidityAvg,HumidityLow,PressureMaxIn,PressureMinIn,WindSpeedMaxMPH,WindSpeedAvgMPH,GustSpeedMaxMPH,PrecipitationSumIn
2013-1-1,40.9,35.5,30.2,32.4,28.6,20.1,87,76,51,30.04,29.93,4,0,4,0.05
2013-1-2,40.5,33.3,26.6,30.6,24.6,17.4,89,71,47,30.25,30.01,11,1,11,0.00
2013-1-3,41.6,29.1,20.6,24.2,20.1,17.2,95,70,45,30.28,30.16,11,1,11,0.00
2013-1-4,43.4,33.7,25.8,24.7,20.7,18.0,73,59,44,30.27,30.15,15,2,15,0.00
2013-1-5,46.9,36.6,28.7,28.5,22.8,17.9,74,58,41,30.41,30.18,12,1,12,0.00
2013-1-6,45.8,38.5,27.6,31.5,29.0,24.0,88,69,54,30.18,30.05,9,1,9,0.00
2013-1-7,41.1,36.1,27.1,30.6,27.2,23.2,87,70,59,30.49,30.18,15,2,15,0.00
2013-1-8,54.4,37.0,24.3,35.0,28.2,21.2,92,73,42,30.45,30.34,7,1,7,0.00
2013-1-9,59.6,43.8,27.0,47.3,36.0,24.0,92,75,44,30.44,30.25,11,1,14,0.00
2013-1-10,57.2,44.7,32.2,35.2,31.5,27.3,83,61,38,30.61,30.43,6,1,11,0.00
2013-1-11,51.0,42.8,34.4,44.6,36.6,29.5,93,79,59,30.47,30.10,5,1,8,0.00
2013-1-12,67.5,47.8,36.7,55.7,44.0,34.9,98,87,65,30.19,30.08,5,0,5,0.00
2013-1-13,71.9,56.6,43.9,59.2,51.0,41.9,94,83,60,30.11,29.93,16,1,16,0.01
2013-1-14,66.3,54.2,37.9,58.3,46.9,35.5,91,77,67,30.33,29.92,19,4,19,0.29
2013-1-15,38.1,36.2,34.4,36.0,34.1,32.9,94,92,88,30.39,30.15,11,3,11,0.69
2013-1-16,42.2,37.1,33.2,41.0,35.5,31.7,100,94,93,30.17,29.84,15,2,15,0.27
2013-1-17,44.5,39.5,33.6,39.7,34.0,27.7,94,81,53,30.15,30.00,11,2,11,0.00
2013-1-18,40.0,33.6,26.8,31.2,19.0,13.0,90,56,37,30.50,30.14,24,3,24,0.00
2013-1-19,58.1,42.0,25.1,30.5,24.4,19.2,79,53,30,30.43,29.97,16,2,16,0.00
2013-1-20,55.2,44.5,31.4,33.6,22.1,8.6,69,42,26,30.10,29.88,21,3,21,0.00
2013-1-21,48.2,33.8,26.5,22.7,16.7,9.1,71,51,31,30.10,29.82,16,3,23,0.00
2013-1-22,27.7,19.2,14.5,10.8,-0.9,-5.1,53,41,32,30.33,29.98,20,4,20,0.00
2013-1-23,27.2,19.4,12.4,15.1,3.0,-0.6,85,49,35,30.38,30.14,14,2,14,0.00
2013-1-24,24.3,18.5,11.7,15.1,8.8,3.2,89,68,43,30.59,30.09,26,4,26,0.00
2013-1-25,24.1,18.3,9.9,17.1,10.9,4.2,80,73,50,30.58,30.08,15,1,15,0.00
2013-1-26,33.9,27.8,21.6,27.0,21.0,17.1,87,76,61,30.47,30.08,11,2,11,0.01
2013-1-27,40.0,31.5,25.7,25.0,20.5,15.6,79,64,50,30.61,30.46,9,1,9,0.00
2013-1-28,58.5,42.4,30.9,46.4,36.7,24.5,93,81,64,30.47,30.09,12,1,12,0.20
2013-1-29,75.3,55.7,41.3,57.0,49.0,39.2,93,80,52,30.14,29.94,13,1,13,0.01
2013-1-30,71.0,60.1,50.5,61.2,54.9,47.0,94,84,70,29.94,29.23,34,5,34,1.77
2013-1-31,55.6,39.0,30.3,53.8,25.7,15.4,94,59,44,29.93,29.20,27,7,27,0.12
2013-2-1,32.1,23.6,13.8,24.5,9.8,2.5,86,56,43,30.43,29.82,30,4,30,0.00
2013-2-2,32.7,22.8,11.8,23.2,13.4,5.6,82,68,41,30.42,30.03,19,2,19,0.00
2013-2-3,36.7,30.8,27.0,28.9,23.0,12.8,92,74,53,30.03,29.83,18,2,18,0.00
2013-2-4,38.4,30.6,20.9,25.6,17.4,11.6,75,58,46,30.13,29.90,19,2,19,0.00
2013-2-5,48.4,39.1,33.1,38.2,31.6,25.7,85,75,62,29.95,29.83,16,1,16,0.00
2013-2-6,48.1,37.7,26.1,32.7,28.6,22.2,89,71,48,30.36,29.93,16,2,16,0.00
2013-2-7,40.7,32.9,24.3,29.1,26.3,21.3,90,77,61,30.44,30.18,6,1,6,0.00
2013-2-8,42.7,35.4,31.2,36.5,30.0,22.7,93,82,59,30.18,29.82,27,3,27,0.07
2013-2-9,42.9,33.4,22.6,23.2,17.8,13.3,75,54,33,30.43,30.04,25,4,25,0.00
2013-2-10,50.1,32.2,17.1,30.8,19.7,13.1,92,63,35,30.50,30.20,11,1,11,0.03
2013-2-11,63.6,51.6,36.3,51.8,39.5,25.6,89,67,30,30.20,29.74,26,4,26,0.02
2013-2-12,60.7,48.4,36.1,28.8,25.7,20.8,67,42,23,29.99,29.83,19,2,19,0.00
2013-2-13,45.3,35.0,29.7,33.8,28.6,23.3,93,78,50,29.95,29.67,12,1,12,0.06
2013-2-14,50.1,37.3,27.1,33.3,29.0,24.8,93,74,44,30.05,29.82,11,1,11,0.03
2013-2-15,56.4,39.2,27.7,39.7,31.6,24.2,93,76,44,30.08,29.91,23,2,23,0.29
2013-2-16,35.1,32.1,27.0,31.9,25.1,13.9,94,77,54,30.01,29.89,17,3,17,0.00
2013-2-17,27.2,23.5,21.0,18.2,10.1,6.0,86,57,43,30.27,29.92,24,5,24,0.00
2013-2-18,47.9,30.2,13.8,23.7,14.6,7.0,78,54,30,30.42,30.15,11,1,14,0.00
2013-2-19,52.2,40.1,28.5,41.5,29.4,17.0,87,67,44,30.15,29.72,24,4,24,0.03
2013-2-20,39.1,32.0,22.9,19.0,15.3,13.3,67,50,38,30.20,29.89,29,5,29,0.00
2013-2-21,39.2,28.3,18.8,20.2,15.6,10.8,73,59,43,30.36,30.17,15,2,15,0.00
2013-2-22,34.5,31.1,27.4,28.0,23.4,17.6,85,73,66,30.39,30.19,6,1,6,0.01
2013-2-23,53.4,39.9,33.3,41.9,33.6,27.5,91,79,64,30.19,29.84,6,1,6,0.01
2013-2-24,50.8,40.0,29.5,40.8,29.2,17.2,94,69,37,30.17,29.83,21,4,21,0.00
2013-2-25,46.1,32.1,20.1,25.2,20.4,15.4,85,63,43,30.27,30.16,9,1,9,0.00
2013-2-26,39.9,33.4,25.3,37.8,29.2,19.7,93,84,63,30.23,29.64,25,4,25,0.82
2013-2-27,51.2,43.1,36.7,44.5,36.0,32.7,94,77,52,29.73,29.60,16,2,16,0.01
2013-2-28,42.5,39.8,33.9,35.0,27.8,24.2,77,62,53,29.79,29.65,16,3,16,0.00
2013-3-1,39.0,36.3,31.4,28.7,25.5,21.0,77,65,59,29.94,29.78,15,4,16,0.00
2013-3-2,34.6,31.5,29.4,23.5,20.8,18.4,77,65,54,29.94,29.86,16,4,16,0.00
2013-3-3,38.2,31.5,28.3,21.4,18.3,15.5,66,58,48,30.01,29.86,19,5,19,0.00
2013-3-4,44.4,32.1,22.8,20.4,15.3,11.3,76,51,32,30.10,29.99,17,3,17,0.00
2013-3-5,52.1,38.8,26.5,30.5,23.9,18.6,92,58,33,30.11,29.75,18,3,18,0.01
2013-3-6,39.2,33.5,30.9,33.5,30.5,28.1,94,89,65,30.08,29.67,27,5,27,0.46
2013-3-7,41.3,38.5,33.6,28.9,27.1,26.0,81,64,55,30.24,30.08,21,5,25,0.12
2013-3-8,42.4,36.5,28.8,29.1,26.3,23.9,84,66,58,30.38,30.21,24,5,24,0.00
2013-3-9,54.8,35.9,21.3,29.3,24.7,18.7,91,67,30,30.43,30.30,8,1,8,0.00
2013-3-10,62.7,43.0,25.2,35.2,27.8,21.0,87,59,32,30.35,30.19,6,1,6,0.00
2013-3-11,59.3,49.4,38.7,49.9,35.9,22.2,84,61,28,30.20,29.84,35,3,35,0.00
2013-3-12,58.1,50.7,33.9,51.3,43.7,29.2,98,78,55,30.02,29.73,25,4,29,0.58
2013-3-13,46.9,36.9,29.4,31.6,24.7,17.7,88,63,40,30.12,29.94,24,4,24,0.00
2013-3-14,43.8,35.2,27.6,21.3,18.1,15.0,61,50,38,30.21,30.10,25,5,25,0.00
2013-3-15,58.9,42.1,25.0,38.2,26.7,16.5,77,56,41,30.15,29.81,18,2,18,0.00
2013-3-16,65.3,46.9,34.7,53.9,40.6,32.1,92,79,61,29.93,29.59,18,2,18,0.10
2013-3-17,37.4,33.9,31.1,34.4,31.6,29.2,94,91,85,30.29,29.93,14,2,14,0.06
2013-3-18,33.8,32.1,30.0,31.7,29.9,28.1,94,91,85,30.31,29.91,14,1,14,0.27
2013-3-19,57.1,43.1,32.5,42.2,27.3,10.3,94,62,24,29.96,29.75,33,5,33,0.15
2013-3-20,51.2,41.5,31.6,28.3,16.8,10.5,70,37,26,30.03,29.78,21,4,21,0.00
2013-3-21,36.2,29.8,23.9,28.3,16.2,9.8,87,58,42,29.98,29.81,23,5,23,0.00
2013-3-22,47.1,34.5,24.8,22.4,17.0,11.3,64,49,34,30.05,29.90,16,3,16,0.00
2013-3-23,54.0,38.6,22.4,25.4,21.5,17.3,82,53,30,30.08,29.93,14,2,16,0.00
2013-3-24,39.7,33.0,28.8,29.7,25.4,21.5,93,75,49,30.01,29.63,11,1,11,0.01
2013-3-25,35.7,32.5,30.0,33.8,30.5,28.2,100,92,86,29.75,29.55,7,1,7,0.51
2013-3-26,44.9,37.8,31.5,32.1,29.2,26.1,92,72,58,30.08,29.75,21,4,21,0.03
2013-3-27,45.2,38.2,32.3,31.6,26.8,23.5,76,64,47,30.19,30.07,21,3,21,0.00
2013-3-28,45.7,40.2,35.1,29.6,27.4,25.0,68,60,51,30.28,30.15,24,4,24,0.00
2013-3-29,54.7,43.4,34.2,34.1,29.4,25.5,84,60,34,30.31,30.17,16,2,16,0.00
2013-3-30,60.7,44.0,28.4,35.3,29.5,24.2,87,60,32,30.27,30.09,13,1,13,0.00
2013-3-31,57.5,46.3,37.9,49.7,40.5,29.6,92,80,66,30.10,29.75,13,1,13,0.04
2013-4-1,59.0,47.7,38.7,44.2,35.8,20.4,90,64,45,30.01,29.78,25,4,25,0.00
2013-4-2,48.4,39.6,28.3,22.1,17.6,14.6,67,42,26,30.22,30.01,19,4,19,0.00
2013-4-3,49.9,36.6,21.7,25.0,17.9,14.4,82,50,27,30.41,30.21,22,4,22,0.00
2013-4-4,48.8,35.4,22.0,32.5,21.0,16.0,91,59,32,30.44,30.08,12,1,12,0.19
2013-4-5,63.7,47.3,34.6,44.2,33.5,27.7,93,65,32,30.08,29.85,19,3,19,0.08
2013-4-6,61.4,46.2,29.1,29.0,24.2,18.7,74,43,28,30.33,30.07,13,2,13,0.00
2013-4-7,72.8,56.6,37.6,47.1,38.9,25.6,75,53,38,30.23,29.97,21,3,21,0.00
2013-4-8,80.0,66.5,48.4,52.8,47.8,41.6,79,53,34,30.09,29.92,18,2,23,0.00
2013-4-9,85.8,71.7,53.2,58.6,54.0,47.5,83,55,39,30.10,29.93,17,2,17,0.00
2013-4-10,90.0,75.0,57.0,62.7,55.8,48.7,77,53,37,30.00,29.77,18,2,18,0.00
2013-4-11,88.3,72.3,55.1,62.7,56.7,49.3,88,60,27,29.87,29.68,16,3,16,0.00
2013-4-12,78.7,68.9,56.4,63.8,55.8,39.4,92,65,36,29.77,29.53,27,4,27,0.68
2013-4-13,71.8,56.9,42.7,43.4,37.3,29.4,78,50,27,29.98,29.77,16,2,21,0.00
2013-4-14,71.3,56.9,40.1,46.6,38.7,29.3,78,52,37,30.14,29.97,25,3,25,0.00
2013-4-15,63.8,58.0,51.7,53.5,49.0,41.9,92,73,50,30.25,30.07,16,2,16,0.08
2013-4-16,78.1,65.2,54.4,61.5,56.6,51.5,92,75,56,30.27,30.11,19,3,19,0.00
2013-4-17,83.5,66.7,56.4,64.7,59.5,54.4,93,79,47,30.20,30.09,17,3,17,0.03
2013-4-18,76.5,67.2,57.0,64.6,58.8,54.4,92,76,58,30.17,29.93,24,3,24,0.01
2013-4-19,76.2,67.3,53.5,64.6,58.7,42.3,91,74,64,29.93,29.58,33,7,33,0.42
2013-4-20,59.0,50.5,42.9,41.9,30.7,24.0,65,47,33,30.36,29.79,21,4,21,0.01
2013-4-21,54.4,44.4,32.5,31.3,27.7,24.7,80,53,37,30.61,30.36,15,3,15,0.00
2013-4-22,56.5,45.7,31.1,37.3,31.9,26.3,87,60,42,30.56,30.38,17,3,17,0.00
2013-4-23,67.3,51.5,40.9,47.5,41.1,35.2,86,69,45,30.39,30.11,11,2,11,0.00
2013-4-24,78.0,61.3,42.5,57.4,49.8,39.8,92,69,43,30.11,29.78,22,3,22,0.04
2013-4-25,67.6,53.7,41.6,44.8,34.1,29.2,70,50,25,30.34,30.03,22,3,22,0.00
2013-4-26,69.8,52.2,34.4,41.6,36.3,30.2,86,57,33,30.48,30.33,12,1,12,0.00
2013-4-27,73.7,57.6,39.6,47.8,42.1,36.2,90,59,38,30.41,30.25,13,2,13,0.00
2013-4-28,58.2,54.0,45.9,51.2,46.2,41.4,87,75,61,30.25,30.11,22,2,22,0.03
2013-4-29,66.0,56.5,50.0,57.2,51.5,46.0,92,84,71,30.13,29.99,12,1,19,0.03
2013-4-30,62.6,56.4,52.5,57.2,52.8,47.0,93,88,74,30.29,30.08,18,4,18,0.00
2013-5-1,70.3,60.4,52.7,48.7,42.9,31.0,85,56,29,30.39,30.28,15,3,15,0.00
2013-5-2,69.5,55.7,37.8,51.1,42.7,34.8,90,64,37,30.42,30.31,15,2,15,0.00
2013-5-3,67.3,54.2,38.6,51.0,44.0,36.4,93,70,46,30.38,30.26,16,2,16,0.00
2013-5-4,66.3,54.2,39.9,49.5,42.6,35.9,88,66,48,30.33,30.17,18,4,18,0.00
2013-5-5,63.5,53.4,45.0,45.5,40.5,33.8,74,62,49,30.22,30.11,18,4,18,0.00
2013-5-6,58.4,53.3,47.6,55.9,50.1,44.6,93,89,73,30.17,30.00,20,4,20,0.34
2013-5-7,60.7,57.2,52.9,58.7,55.1,50.9,93,93,90,30.01,29.89,21,4,21,3.49
2013-5-8,66.8,54.5,49.9,60.8,51.3,48.0,94,90,65,30.02,29.93,17,1,17,0.58
2013-5-9,78.3,59.2,45.8,61.8,51.1,44.2,98,77,40,30.03,29.95,14,1,14,0.05
2013-5-10,85.0,66.0,50.1,63.1,56.6,47.9,93,75,43,30.04,29.85,16,2,16,0.54
2013-5-11,61.5,60.6,59.8,59.4,58.6,57.7,93,93,92,29.89,29.81,4,0,4,0.01
2013-5-12,61.7,56.4,49.4,56.7,34.6,28.7,92,45,35,30.06,29.78,20,5,20,0.00
2013-5-13,57.7,47.7,37.2,38.2,32.1,26.7,88,57,35,30.20,30.05,22,3,22,0.00
2013-5-14,67.0,50.6,31.2,48.1,37.4,28.6,92,64,37,30.26,30.01,13,1,13,0.00
2013-5-15,93.7,71.5,47.8,65.7,53.3,43.9,89,58,27,30.01,29.69,19,2,20,0.00
2013-5-16,80.9,73.7,66.3,62.6,58.0,51.5,82,59,41,29.95,29.77,14,2,14,0.00
2013-5-17,84.7,69.7,53.1,63.3,58.3,50.8,93,70,42,30.10,29.94,10,1,10,0.00
2013-5-18,70.3,65.0,61.9,63.5,60.2,58.0,91,85,77,30.18,30.08,10,1,10,0.00
2013-5-19,74.2,65.3,56.7,64.8,60.6,54.4,93,85,70,30.18,30.06,8,1,8,0.00
2013-5-20,85.2,71.6,63.2,70.1,65.4,60.8,92,82,55,30.09,29.96,12,1,12,0.38
2013-5-21,92.3,74.2,59.9,72.5,65.5,57.7,93,77,43,30.01,29.86,7,1,7,0.00
2013-5-22,92.7,74.8,64.4,71.7,65.3,61.7,92,75,40,29.94,29.80,20,2,20,0.43
2013-5-23,83.5,69.7,61.3,67.8,63.2,58.7,93,81,54,29.89,29.73,17,1,17,0.61
2013-5-24,61.8,54.9,46.0,59.5,45.2,32.0,93,71,51,30.23,29.76,28,6,28,0.01
2013-5-25,63.4,52.1,39.2,40.9,35.7,30.1,75,55,38,30.28,30.16,20,4,20,0.00
2013-5-26,71.7,56.3,39.5,43.6,37.7,31.7,89,55,26,30.27,30.16,18,2,18,0.00
2013-5-27,65.9,55.3,40.1,54.7,46.4,37.7,92,73,45,30.32,30.19,5,0,5,0.00
2013-5-28,86.1,67.1,50.7,67.7,59.1,48.5,93,78,49,30.20,30.04,11,1,19,0.00
2013-5-29,90.5,76.3,61.4,68.7,64.1,58.5,91,68,44,30.14,30.05,13,1,13,0.00
2013-5-30,93.2,77.0,62.4,69.8,64.5,59.5,91,68,37,30.20,30.10,13,1,13,0.00
2013-5-31,91.7,75.7,59.4,68.6,63.7,56.8,92,69,43,30.16,30.01,13,1,13,0.00
2013-6-1,90.0,77.7,63.3,70.8,65.8,60.3,90,69,48,30.04,29.90,19,2,19,0.00
2013-6-2,85.2,75.6,70.1,70.6,66.2,62.0,91,73,61,29.91,29.82,23,2,23,0.00
2013-6-3,80.5,71.4,64.2,68.4,64.5,57.9,92,80,57,29.98,29.83,14,1,14,0.26
2013-6-4,78.7,64.2,52.0,58.8,50.6,42.3,93,65,36,30.15,29.98,13,1,13,0.00
2013-6-5,79.9,66.8,52.7,62.3,56.2,49.5,91,71,48,30.17,30.02,14,1,14,0.00
2013-6-6,69.2,63.8,61.7,61.3,59.1,54.7,93,85,67,30.03,29.83,13,1,13,0.71
2013-6-7,66.9,64.1,61.5,64.8,61.9,59.2,93,92,92,29.84,29.65,15,2,16,0.49
2013-6-8,83.8,70.1,60.3,66.2,62.2,58.2,93,78,46,30.08,29.78,7,0,7,0.01
2013-6-9,81.7,69.1,59.0,71.0,64.2,56.7,92,85,70,30.19,30.05,11,1,11,0.02
2013-6-10,82.7,69.7,63.1,73.9,66.6,60.6,92,90,71,30.10,29.78,23,1,23,1.95
2013-6-11,81.5,71.2,60.2,68.6,62.3,57.9,93,75,57,29.89,29.82,19,2,19,0.00
2013-6-12,91.5,76.1,61.3,74.6,66.4,59.0,92,74,50,29.90,29.78,14,1,14,0.00
2013-6-13,82.0,70.4,65.5,71.5,65.2,56.2,92,84,68,29.80,29.52,23,2,23,0.32
2013-6-14,77.4,68.3,59.0,58.1,55.0,52.2,87,63,46,30.04,29.68,20,4,20,0.00
2013-6-15,85.2,68.9,53.4,62.0,57.1,51.1,92,69,39,30.12,29.99,11,1,11,0.00
2013-6-16,83.4,71.3,58.1,69.8,63.0,55.8,92,76,57,30.04,29.91,12,1,12,0.00
2013-6-17,88.6,74.9,64.5,70.9,66.2,62.1,92,76,52,29.98,29.86,16,1,16,0.32
2013-6-18,75.7,67.9,64.1,68.2,64.9,61.5,92,90,72,29.93,29.80,13,1,13,0.81
2013-6-19,79.0,68.1,63.1,64.3,62.1,60.4,93,82,59,30.15,29.90,13,2,13,0.00
2013-6-20,80.1,70.2,61.2,67.4,62.9,59.0,93,79,57,30.24,30.14,17,1,17,0.00
2013-6-21,83.8,72.0,58.9,66.9,61.8,55.8,91,72,54,30.28,30.20,12,1,12,0.00
2013-6-22,88.0,73.0,57.7,70.6,63.8,55.1,92,74,53,30.26,30.12,12,1,12,0.00
2013-6-23,90.5,76.4,65.0,70.7,66.7,62.5,92,74,45,30.18,30.06,8,0,8,0.00
2013-6-24,90.8,75.6,64.0,75.4,67.8,61.6,92,78,47,30.15,30.03,20,1,21,0.01
2013-6-25,92.3,77.9,63.3,75.9,68.9,60.9,92,76,49,30.06,29.90,12,1,12,0.01
2013-6-26,88.5,74.4,68.3,74.5,69.7,65.1,92,86,58,29.93,29.83,18,1,18,0.36
2013-6-27,84.0,73.9,66.3,73.7,69.2,63.9,92,86,68,29.85,29.63,10,1,10,0.43
2013-6-28,91.0,76.6,66.3,73.7,67.2,60.5,92,75,48,29.67,29.46,19,1,19,0.00
2013-6-29,88.8,73.9,60.3,68.1,63.2,57.6,92,72,43,29.70,29.54,14,1,14,0.13
2013-6-30,86.0,74.7,65.8,75.3,68.3,63.7,93,81,59,29.83,29.68,8,1,19,0.03
2013-7-1,83.5,75.3,69.5,71.7,69.0,66.5,91,81,63,29.95,29.82,14,1,14,0.05
2013-7-2,81.1,74.4,70.3,72.7,69.7,67.6,92,85,70,30.14,29.94,12,1,12,0.06
2013-7-3,84.7,75.7,70.4,74.9,70.1,67.3,92,83,71,30.22,30.12,13,1,15,0.14
2013-7-4,87.8,77.5,68.0,76.1,70.5,65.5,92,80,59,30.23,30.14,17,1,17,0.12
2013-7-5,89.7,79.2,67.8,73.6,70.1,65.3,92,75,56,30.22,30.10,22,2,22,0.00
2013-7-6,91.0,79.7,68.7,75.6,70.4,66.3,92,74,57,30.19,30.06,12,1,13,0.00
2013-7-7,91.5,76.0,68.0,75.1,69.5,65.6,92,82,56,30.11,29.98,19,1,19,0.34
2013-7-8,86.5,75.3,65.3,70.6,67.5,63.2,93,78,56,30.13,30.04,13,1,13,0.00
2013-7-9,87.5,76.5,68.0,73.3,69.5,65.3,92,80,57,30.12,30.00,10,0,10,0.00
2013-7-10,84.8,76.5,70.9,75.8,70.9,68.2,92,83,63,30.01,29.86,14,0,14,0.01
2013-7-11,84.3,75.6,68.6,72.1,68.8,65.8,92,80,61,29.94,29.85,14,2,14,0.67
2013-7-12,68.9,66.4,63.7,66.2,63.9,61.6,93,92,87,30.08,29.93,17,2,17,2.03
2013-7-13,83.5,73.3,64.2,72.7,67.8,62.1,93,84,66,30.24,30.07,13,1,13,0.02
2013-7-14,89.2,77.7,68.3,73.7,69.5,65.9,93,78,53,30.33,30.24,12,1,12,0.11
2013-7-15,93.9,79.9,66.8,76.3,70.6,64.7,93,76,49,30.33,30.21,9,0,9,0.00
2013-7-16,93.7,81.0,68.8,77.4,72.6,66.4,92,77,56,30.28,30.17,9,1,12,0.00
2013-7-17,92.8,81.2,70.7,77.4,72.8,67.9,92,77,54,30.24,30.10,11,1,11,0.00
2013-7-18,96.3,82.4,71.3,78.6,74.0,68.9,92,77,50,30.14,30.01,9,0,9,0.00
2013-7-19,96.2,79.8,70.3,78.6,72.9,67.9,92,81,49,30.03,29.88,19,1,19,0.83
2013-7-20,94.9,79.2,69.2,76.6,71.1,66.8,93,78,52,29.92,29.80,6,1,12,0.00
2013-7-21,90.8,72.0,67.3,74.1,67.8,64.9,92,87,53,30.00,29.89,21,0,21,1.14
2013-7-22,89.0,77.0,68.7,75.4,70.9,66.5,93,83,62,29.96,29.74,13,1,13,0.00
2013-7-23,88.0,77.7,69.8,72.4,69.2,66.9,93,77,53,29.76,29.66,13,1,13,0.00
2013-7-24,81.1,72.8,67.0,70.0,65.2,57.9,92,78,60,29.93,29.69,14,2,14,0.00
2013-7-25,78.3,67.9,59.0,62.3,57.6,53.7,88,71,53,30.08,29.91,14,3,14,0.00
2013-7-26,84.3,68.8,53.6,65.5,58.8,51.5,93,73,47,30.13,30.01,9,1,9,0.00
2013-7-27,78.0,70.4,62.2,71.6,66.1,59.8,93,87,71,30.04,29.91,11,0,11,0.04
2013-7-28,84.8,73.8,66.4,70.2,66.8,64.0,93,80,55,29.99,29.87,7,0,7,0.00
2013-7-29,81.5,69.3,55.9,65.6,58.6,53.3,93,72,45,30.19,29.99,9,1,12,0.00
2013-7-30,84.7,70.2,56.3,65.8,59.4,53.9,92,71,45,30.25,30.14,11,0,11,0.00
2013-7-31,80.2,66.3,60.3,68.3,63.0,57.9,93,89,67,30.16,30.01,5,0,5,0.66
2013-8-1,85.2,71.0,65.6,71.7,66.6,63.5,93,87,59,30.01,29.82,15,0,17,0.87
2013-8-2,86.9,73.2,60.8,68.2,64.1,58.8,93,76,47,29.98,29.89,10,1,12,0.01
2013-8-3,78.2,68.3,62.2,69.9,64.4,59.8,93,88,68,30.01,29.92,7,0,7,0.01
2013-8-4,78.3,69.0,59.0,64.4,59.2,53.2,93,74,43,30.07,29.95,18,2,18,0.01
2013-8-5,81.5,67.0,53.1,62.5,57.1,51.1,93,73,42,30.14,30.01,7,0,7,0.00
2013-8-6,80.1,70.3,64.2,68.8,64.9,61.8,93,84,66,30.04,29.98,11,1,11,0.20
2013-8-7,86.1,74.2,65.4,72.7,68.5,63.3,93,83,63,30.05,29.96,14,1,14,0.01
2013-8-8,85.0,75.3,68.4,74.2,70.4,66.0,92,85,67,30.01,29.94,16,1,16,0.03
2013-8-9,90.3,79.2,71.2,75.4,71.6,68.8,92,79,57,29.97,29.87,14,1,14,0.00
2013-8-10,85.7,74.7,69.9,72.1,69.3,66.9,93,84,60,30.09,29.96,9,0,9,0.24
2013-8-11,89.2,74.8,68.3,73.6,69.3,65.6,92,84,57,30.11,29.98,7,0,7,0.07
2013-8-12,90.1,75.2,66.0,73.7,68.8,63.9,93,82,51,30.04,29.91,11,0,11,0.31
2013-8-13,86.0,74.8,69.0,71.0,68.1,65.3,93,81,58,29.91,29.75,12,1,12,0.10
2013-8-14,71.8,64.8,55.3,65.6,53.0,47.4,89,67,52,30.16,29.83,19,4,19,0.00
2013-8-15,77.6,62.0,48.5,58.7,52.8,46.6,93,75,44,30.22,30.10,9,0,9,0.00
2013-8-16,77.8,63.5,50.0,60.0,54.9,48.1,93,76,50,30.21,30.13,9,0,9,0.00
2013-8-17,76.5,64.4,51.0,62.7,56.8,49.0,94,78,55,30.28,30.21,12,1,12,0.01
2013-8-18,67.5,63.3,60.3,62.6,60.7,58.3,93,91,80,30.26,30.19,0,0,0,0.55
2013-8-19,85.4,70.2,61.3,70.6,65.0,59.3,93,84,60,30.20,30.03,1,0,1,0.01
2013-8-20,88.7,74.2,64.0,71.7,67.3,61.9,93,81,56,30.18,30.09,1,0,1,0.01
2013-8-21,89.6,73.1,64.3,74.8,67.6,62.2,93,84,54,30.21,30.07,14,0,14,0.31
2013-8-22,87.4,74.1,64.8,70.9,66.8,62.7,93,80,56,30.10,29.96,12,0,12,0.01
2013-8-23,71.2,66.3,59.0,66.9,63.7,57.0,93,91,81,30.16,29.96,12,1,12,1.37
2013-8-24,80.5,64.9,55.9,66.5,58.3,53.9,94,81,48,30.35,30.16,11,0,11,0.01
2013-8-25,82.2,66.4,53.4,65.5,59.1,51.4,94,79,53,30.43,30.27,0,0,0,0.01
2013-8-26,86.5,70.5,57.5,67.0,61.7,55.4,93,76,49,30.30,30.05,10,0,10,0.00
2013-8-27,86.5,74.2,62.9,73.0,67.5,60.5,93,81,62,30.06,29.93,12,1,12,0.02
2013-8-28,78.4,72.5,68.8,73.2,69.7,66.4,93,91,82,29.97,29.80,0,0,0,0.40
2013-8-29,83.3,74.0,65.6,72.3,69.3,63.1,93,86,66,30.03,29.84,11,2,11,0.00
2013-8-30,88.3,73.1,62.0,72.5,66.5,60.0,93,81,55,30.05,29.88,10,1,12,0.01
2013-8-31,89.1,75.4,66.6,75.6,68.9,64.5,93,82,57,29.90,29.81,10,0,10,0.00
2013-9-1,90.0,73.7,63.6,74.6,68.4,61.5,93,85,57,29.87,29.77,14,0,14,0.41
2013-9-2,89.3,76.5,68.2,74.9,69.9,66.1,93,82,57,29.83,29.73,12,1,12,0.02
2013-9-3,83.8,73.3,61.8,69.0,63.7,57.6,93,74,48,29.99,29.75,12,1,12,0.01
2013-9-4,83.5,67.2,53.8,64.7,58.3,51.8,93,76,45,30.12,29.99,8,0,8,0.00
2013-9-5,84.8,68.0,53.4,64.8,58.0,51.4,94,73,45,30.15,30.02,14,2,14,0.01
2013-9-6,79.3,62.5,50.2,56.9,52.7,48.0,93,73,42,30.26,30.13,7,1,10,0.00
2013-9-7,83.6,65.4,50.4,62.8,55.8,48.5,94,75,40,30.16,29.95,7,0,7,0.00
2013-9-8,89.2,71.6,58.2,71.4,63.7,55.5,93,78,50,30.03,29.87,15,1,15,0.00
2013-9-9,83.5,70.3,61.8,69.2,62.0,54.3,92,76,59,30.19,30.02,10,1,10,0.00
2013-9-10,92.4,76.5,64.0,74.5,68.7,61.6,93,79,52,30.18,30.08,9,0,9,0.00
2013-9-11,93.3,78.5,68.1,76.0,71.2,65.7,93,80,54,30.17,30.00,11,1,11,0.00
2013-9-12,91.8,74.0,66.8,74.3,68.7,63.0,93,85,51,30.01,29.77,24,0,24,0.38
2013-9-13,73.8,66.0,57.8,63.8,56.4,49.5,93,73,48,29.98,29.73,20,3,20,0.02
2013-9-14,69.0,56.1,46.3,50.3,46.4,43.0,92,72,47,30.20,29.98,13,1,13,0.00
2013-9-15,77.7,59.3,42.8,60.6,51.8,40.9,94,79,52,30.27,30.09,10,1,10,0.00
2013-9-16,66.2,59.3,53.7,59.9,55.7,51.4,93,88,69,30.27,30.06,14,0,14,0.04
2013-9-17,67.2,55.6,44.8,52.2,48.1,42.2,94,78,48,30.45,30.27,14,2,14,0.00
2013-9-18,74.5,54.9,39.3,56.6,47.5,37.5,94,78,51,30.37,30.18,6,0,6,0.01
2013-9-19,76.8,62.9,49.5,63.2,56.3,47.3,93,80,61,30.20,30.08,7,0,7,0.00
2013-9-20,79.5,65.0,53.2,67.4,59.7,51.2,94,84,63,30.09,29.94,11,1,11,0.00
2013-9-21,72.9,65.1,60.0,66.9,62.2,57.9,93,90,77,29.94,29.68,13,0,13,0.61
2013-9-22,70.1,60.7,51.4,59.8,53.6,45.6,94,79,53,29.99,29.76,10,1,12,0.02
2013-9-23,66.5,53.9,45.7,49.5,46.5,43.5,93,78,53,30.14,29.99,14,1,14,0.00
2013-9-24,74.0,57.2,43.6,56.4,49.9,41.4,98,79,50,30.14,29.96,9,0,9,0.00
2013-9-25,76.0,57.5,44.3,58.3,50.8,42.4,94,80,46,30.03,29.89,9,0,9,0.01
2013-9-26,73.9,60.2,49.9,55.4,51.6,47.3,93,76,45,30.10,29.94,12,1,12,0.00
2013-9-27,73.5,57.8,45.0,57.9,51.6,43.1,94,81,55,30.24,30.09,10,0,10,0.00
2013-9-28,64.4,55.7,47.0,57.7,51.6,45.3,94,87,70,30.33,30.23,7,0,7,0.01
2013-9-29,72.3,58.4,46.2,55.3,50.8,44.2,94,78,51,30.24,30.06,7,0,7,0.00
2013-9-30,77.3,59.9,44.7,59.0,52.0,42.8,94,78,48,30.13,29.98,7,0,7,0.01
2013-10-1,82.1,65.0,53.4,61.9,56.5,51.1,93,77,44,30.11,29.99,10,0,10,0.00
2013-10-2,84.8,65.8,50.9,65.2,57.6,49.0,94,78,48,30.14,30.02,9,0,9,0.00
2013-10-3,82.3,65.8,53.5,66.6,59.5,51.5,94,82,58,30.17,30.05,7,0,7,0.00
2013-10-4,86.9,68.6,55.7,67.3,61.3,53.7,93,80,51,30.13,30.03,6,0,9,0.00
2013-10-5,88.0,70.7,57.6,68.0,62.8,55.6,93,78,50,30.14,30.00,10,0,10,0.00
2013-10-6,85.6,72.1,59.0,68.0,62.8,56.9,93,75,51,30.03,29.86,22,2,22,0.01
2013-10-7,73.5,65.0,49.0,67.1,58.2,45.6,93,79,60,30.10,29.73,18,1,18,0.96
2013-10-8,65.2,52.8,42.2,51.1,45.5,40.3,94,78,50,30.31,30.10,13,2,17,0.01
2013-10-9,56.6,50.5,44.9,49.8,46.8,43.0,94,87,74,30.36,30.26,15,2,15,0.14
2013-10-10,53.9,51.3,49.2,52.2,49.5,47.2,94,93,92,30.26,30.06,17,4,17,1.84
2013-10-11,58.2,55.6,52.8,56.5,53.9,51.1,94,94,93,30.06,30.00,9,1,11,0.58
2013-10-12,61.3,32.0,-39.3,59.6,30.2,-43.3,94,93,79,30.19,30.01,12,4,16,0.26
2013-10-13,59.1,56.9,55.9,57.3,55.2,54.2,94,94,93,30.33,30.18,16,4,16,0.22
2013-10-14,64.9,57.9,51.2,58.5,54.9,49.2,94,90,78,30.35,30.23,10,1,10,0.01
2013-10-15,68.5,54.4,48.4,58.9,50.9,46.8,94,89,67,30.26,30.09,4,0,4,0.00
2013-10-16,71.1,57.9,-39.3,63.6,53.2,-42.1,94,85,66,30.10,29.91,8,0,8,0.01